sensor_id;sensor_type;location;lat;lon;timestamp;pressure;altitude;pressure_sealevel;temperature;humidity
20105;BME280;10212;42.714;23.310;2022-07-23T00:03:45;95563.81;;;20.69;55.89
20105;BME280;10212;42.714;23.310;2022-07-23T00:08:46;95560.66;;;20.40;56.82
20105;BME280;10212;42.714;23.310;2022-07-23T00:13:46;95563.22;;;20.24;57.77
20105;BME280;10212;42.714;23.310;2022-07-23T00:18:47;95566.81;;;20.07;57.87
20105;BME280;10212;42.714;23.310;2022-07-23T00:23:47;95567.09;;;20.11;57.96
20105;BME280;10212;42.714;23.310;2022-07-23T00:28:48;95566.19;;;20.00;58.55
20105;BME280;10212;42.714;23.310;2022-07-23T00:33:48;95572.75;;;19.97;59.10
20105;BME280;10212;42.714;23.310;2022-07-23T00:38:49;95574.75;;;19.85;59.30
20105;BME280;10212;42.714;23.310;2022-07-23T00:43:50;95577.84;;;19.76;59.59
20105;BME280;10212;42.714;23.310;2022-07-23T00:48:50;95575.63;;;19.63;59.93
20105;BME280;10212;42.714;23.310;2022-07-23T00:53:51;95572.13;;;19.57;60.13
20105;BME280;10212;42.714;23.310;2022-07-23T00:58:52;95577.75;;;19.38;60.98
20105;BME280;10212;42.714;23.310;2022-07-23T01:03:52;95579.19;;;19.51;61.54
20105;BME280;10212;42.714;23.310;2022-07-23T01:08:56;95574.84;;;19.40;61.27
20105;BME280;10212;42.714;23.310;2022-07-23T01:13:56;95577.38;;;19.30;61.72
20105;BME280;10212;42.714;23.310;2022-07-23T01:18:57;95570.28;;;19.13;62.27
20105;BME280;10212;42.714;23.310;2022-07-23T01:23:57;95568.13;;;19.10;62.33
20105;BME280;10212;42.714;23.310;2022-07-23T01:28:58;95579.97;;;19.07;62.63
20105;BME280;10212;42.714;23.310;2022-07-23T01:33:59;95570.13;;;19.02;62.99
20105;BME280;10212;42.714;23.310;2022-07-23T01:38:59;95564.41;;;18.88;63.50
20105;BME280;10212;42.714;23.310;2022-07-23T01:44:00;95565.06;;;18.78;64.22
20105;BME280;10212;42.714;23.310;2022-07-23T01:49:01;95569.09;;;18.64;64.56
20105;BME280;10212;42.714;23.310;2022-07-23T01:54:01;95567.41;;;18.58;64.48
20105;BME280;10212;42.714;23.310;2022-07-23T01:59:02;95570.84;;;18.75;62.12
20105;BME280;10212;42.714;23.310;2022-07-23T02:04:03;95566.53;;;18.69;62.71
20105;BME280;10212;42.714;23.310;2022-07-23T02:09:03;95568.53;;;18.62;62.28
20105;BME280;10212;42.714;23.310;2022-07-23T02:14:04;95574.56;;;18.57;63.03
20105;BME280;10212;42.714;23.310;2022-07-23T02:19:04;95569.28;;;18.40;63.05
20105;BME280;10212;42.714;23.310;2022-07-23T02:24:06;95570.56;;;18.37;63.13
20105;BME280;10212;42.714;23.310;2022-07-23T02:29:07;95574.41;;;18.29;63.17
20105;BME280;10212;42.714;23.310;2022-07-23T02:34:07;95572.25;;;17.97;64.30
20105;BME280;10212;42.714;23.310;2022-07-23T02:39:11;95578.03;;;17.94;64.16
20105;BME280;10212;42.714;23.310;2022-07-23T02:44:12;95582.47;;;17.76;65.34
20105;BME280;10212;42.714;23.310;2022-07-23T02:49:13;95579.72;;;17.71;65.62
20105;BME280;10212;42.714;23.310;2022-07-23T02:54:13;95586.53;;;17.67;65.88
20105;BME280;10212;42.714;23.310;2022-07-23T02:59:14;95594.13;;;17.51;66.65
20105;BME280;10212;42.714;23.310;2022-07-23T03:04:15;95600.66;;;17.60;66.34
20105;BME280;10212;42.714;23.310;2022-07-23T03:09:15;95601.31;;;17.68;66.12
20105;BME280;10212;42.714;23.310;2022-07-23T03:14:16;95603.72;;;17.69;66.71
20105;BME280;10212;42.714;23.310;2022-07-23T03:19:17;95614.09;;;17.76;66.83
20105;BME280;10212;42.714;23.310;2022-07-23T03:24:17;95611.28;;;17.37;68.43
20105;BME280;10212;42.714;23.310;2022-07-23T03:29:18;95615.97;;;17.34;68.58
20105;BME280;10212;42.714;23.310;2022-07-23T03:34:18;95617.66;;;17.41;68.36
20105;BME280;10212;42.714;23.310;2022-07-23T03:39:20;95622.59;;;17.49;68.25
20105;BME280;10212;42.714;23.310;2022-07-23T03:44:20;95622.13;;;17.52;68.43
20105;BME280;10212;42.714;23.310;2022-07-23T03:49:21;95615.63;;;17.72;67.18
20105;BME280;10212;42.714;23.310;2022-07-23T03:54:21;95618.47;;;17.82;66.86
20105;BME280;10212;42.714;23.310;2022-07-23T03:59:22;95620.59;;;18.15;66.72
20105;BME280;10212;42.714;23.310;2022-07-23T04:04:22;95620.16;;;18.06;66.73
20105;BME280;10212;42.714;23.310;2022-07-23T04:09:23;95624.19;;;18.08;66.62
20105;BME280;10212;42.714;23.310;2022-07-23T04:14:28;95622.34;;;18.09;67.54
20105;BME280;10212;42.714;23.310;2022-07-23T04:19:30;95633.91;;;18.20;66.48
20105;BME280;10212;42.714;23.310;2022-07-23T04:24:30;95635.19;;;18.35;65.39
20105;BME280;10212;42.714;23.310;2022-07-23T04:29:31;95630.78;;;18.23;65.81
20105;BME280;10212;42.714;23.310;2022-07-23T04:34:32;95640.94;;;18.14;65.92
20105;BME280;10212;42.714;23.310;2022-07-23T04:39:32;95635.19;;;18.35;65.13
20105;BME280;10212;42.714;23.310;2022-07-23T04:44:33;95631.38;;;18.25;65.36
20105;BME280;10212;42.714;23.310;2022-07-23T04:49:33;95645.13;;;18.44;64.81
20105;BME280;10212;42.714;23.310;2022-07-23T04:54:34;95646.88;;;18.39;65.22
20105;BME280;10212;42.714;23.310;2022-07-23T04:59:34;95647.69;;;18.56;64.87
20105;BME280;10212;42.714;23.310;2022-07-23T05:04:35;95639.34;;;18.65;64.68
20105;BME280;10212;42.714;23.310;2022-07-23T05:09:35;95647.34;;;18.70;65.18
20105;BME280;10212;42.714;23.310;2022-07-23T05:14:36;95640.28;;;18.93;65.06
20105;BME280;10212;42.714;23.310;2022-07-23T05:19:36;95651.63;;;19.11;64.08
20105;BME280;10212;42.714;23.310;2022-07-23T05:24:37;95637.69;;;19.33;63.41
20105;BME280;10212;42.714;23.310;2022-07-23T05:29:38;95638.63;;;19.44;62.85
20105;BME280;10212;42.714;23.310;2022-07-23T05:34:38;95639.00;;;19.80;62.50
20105;BME280;10212;42.714;23.310;2022-07-23T05:39:38;95647.28;;;20.11;61.72
20105;BME280;10212;42.714;23.310;2022-07-23T05:44:39;95649.84;;;20.29;60.59
20105;BME280;10212;42.714;23.310;2022-07-23T05:49:39;95649.47;;;20.47;59.92
20105;BME280;10212;42.714;23.310;2022-07-23T05:54:40;95644.75;;;20.55;59.73
20105;BME280;10212;42.714;23.310;2022-07-23T05:59:40;95636.47;;;20.84;58.81
20105;BME280;10212;42.714;23.310;2022-07-23T06:04:41;95634.22;;;21.03;58.27
20105;BME280;10212;42.714;23.310;2022-07-23T06:09:42;95632.47;;;21.19;58.15
20105;BME280;10212;42.714;23.310;2022-07-23T06:14:43;95625.66;;;21.39;57.49
20105;BME280;10212;42.714;23.310;2022-07-23T06:19:43;95632.63;;;21.56;57.10
20105;BME280;10212;42.714;23.310;2022-07-23T06:24:44;95628.47;;;21.81;57.15
20105;BME280;10212;42.714;23.310;2022-07-23T06:29:45;95627.72;;;21.96;56.35
20105;BME280;10212;42.714;23.310;2022-07-23T06:34:46;95620.03;;;22.05;56.23
20105;BME280;10212;42.714;23.310;2022-07-23T06:39:46;95618.19;;;22.21;55.97
20105;BME280;10212;42.714;23.310;2022-07-23T06:44:47;95626.44;;;22.40;55.05
20105;BME280;10212;42.714;23.310;2022-07-23T06:49:48;95625.91;;;22.70;54.63
20105;BME280;10212;42.714;23.310;2022-07-23T06:54:48;95620.34;;;22.82;53.66
20105;BME280;10212;42.714;23.310;2022-07-23T06:59:49;95615.78;;;22.93;53.82
20105;BME280;10212;42.714;23.310;2022-07-23T07:04:50;95610.44;;;23.13;53.33
20105;BME280;10212;42.714;23.310;2022-07-23T07:09:50;95605.56;;;23.42;51.76
20105;BME280;10212;42.714;23.310;2022-07-23T07:14:51;95606.53;;;23.56;52.05
20105;BME280;10212;42.714;23.310;2022-07-23T07:19:51;95604.28;;;23.79;50.96
20105;BME280;10212;42.714;23.310;2022-07-23T07:24:52;95594.31;;;24.01;50.66
20105;BME280;10212;42.714;23.310;2022-07-23T07:29:52;95593.69;;;24.19;48.85
20105;BME280;10212;42.714;23.310;2022-07-23T07:34:53;95589.72;;;24.47;47.63
20105;BME280;10212;42.714;23.310;2022-07-23T07:39:53;95586.16;;;24.86;45.40
20105;BME280;10212;42.714;23.310;2022-07-23T07:44:54;95580.88;;;24.81;44.68
20105;BME280;10212;42.714;23.310;2022-07-23T07:49:55;95578.38;;;24.95;46.62
20105;BME280;10212;42.714;23.310;2022-07-23T07:54:56;95576.88;;;25.33;45.80
20105;BME280;10212;42.714;23.310;2022-07-23T07:59:57;95570.91;;;25.60;43.83
20105;BME280;10212;42.714;23.310;2022-07-23T08:05:00;95576.47;;;25.64;44.52
20105;BME280;10212;42.714;23.310;2022-07-23T08:10:01;95565.38;;;25.95;43.30
20105;BME280;10212;42.714;23.310;2022-07-23T08:15:01;95563.03;;;26.08;42.60
20105;BME280;10212;42.714;23.310;2022-07-23T08:20:03;95556.28;;;26.30;42.32
20105;BME280;10212;42.714;23.310;2022-07-23T08:25:04;95554.06;;;26.37;41.82
20105;BME280;10212;42.714;23.310;2022-07-23T08:30:05;95555.28;;;26.59;41.25
20105;BME280;10212;42.714;23.310;2022-07-23T08:35:06;95554.03;;;26.84;39.85
20105;BME280;10212;42.714;23.310;2022-07-23T08:40:09;95555.53;;;27.05;39.48
20105;BME280;10212;42.714;23.310;2022-07-23T08:45:11;95549.78;;;27.26;38.92
20105;BME280;10212;42.714;23.310;2022-07-23T08:50:11;95548.53;;;27.46;39.11
20105;BME280;10212;42.714;23.310;2022-07-23T08:55:12;95538.22;;;27.53;38.87
20105;BME280;10212;42.714;23.310;2022-07-23T09:00:13;95537.19;;;27.63;40.20
20105;BME280;10212;42.714;23.310;2022-07-23T09:05:14;95531.00;;;27.91;39.85
20105;BME280;10212;42.714;23.310;2022-07-23T09:10:15;95532.91;;;28.22;37.99
20105;BME280;10212;42.714;23.310;2022-07-23T09:15:15;95531.41;;;28.30;37.55
20105;BME280;10212;42.714;23.310;2022-07-23T09:20:16;95529.72;;;28.75;34.48
20105;BME280;10212;42.714;23.310;2022-07-23T09:25:18;95530.75;;;28.97;34.56
20105;BME280;10212;42.714;23.310;2022-07-23T09:30:24;95520.25;;;29.18;33.42
20105;BME280;10212;42.714;23.310;2022-07-23T09:35:46;95515.50;;;29.15;35.72
20105;BME280;10212;42.714;23.310;2022-07-23T09:41:10;95507.47;;;29.59;32.84
20105;BME280;10212;42.714;23.310;2022-07-23T09:46:24;95508.47;;;29.64;31.69
20105;BME280;10212;42.714;23.310;2022-07-23T09:51:25;95498.66;;;29.85;31.63
20105;BME280;10212;42.714;23.310;2022-07-23T09:56:33;95488.94;;;30.29;31.51
20105;BME280;10212;42.714;23.310;2022-07-23T10:01:34;95485.91;;;30.30;30.38
20105;BME280;10212;42.714;23.310;2022-07-23T10:06:34;95483.06;;;30.36;31.16
20105;BME280;10212;42.714;23.310;2022-07-23T10:11:36;95477.31;;;30.46;29.67
20105;BME280;10212;42.714;23.310;2022-07-23T10:16:37;95472.66;;;30.64;28.74
20105;BME280;10212;42.714;23.310;2022-07-23T10:21:47;95468.94;;;30.78;29.41
20105;BME280;10212;42.714;23.310;2022-07-23T10:32:09;95460.94;;;30.99;29.54
20105;BME280;10212;42.714;23.310;2022-07-23T10:37:22;95455.50;;;31.08;28.85
20105;BME280;10212;42.714;23.310;2022-07-23T10:42:26;95450.59;;;31.53;26.14
20105;BME280;10212;42.714;23.310;2022-07-23T10:47:33;95442.13;;;31.76;25.92
20105;BME280;10212;42.714;23.310;2022-07-23T10:58:09;95435.97;;;32.22;23.02
20105;BME280;10212;42.714;23.310;2022-07-23T11:03:31;95424.28;;;32.43;21.74
20105;BME280;10212;42.714;23.310;2022-07-23T11:08:32;95409.78;;;32.72;21.83
20105;BME280;10212;42.714;23.310;2022-07-23T11:13:47;95412.38;;;32.81;21.28
20105;BME280;10212;42.714;23.310;2022-07-23T11:18:52;95404.59;;;32.80;21.11
20105;BME280;10212;42.714;23.310;2022-07-23T11:39:46;95381.91;;;33.22;21.64
20105;BME280;10212;42.714;23.310;2022-07-23T11:44:47;95381.09;;;33.34;20.66
20105;BME280;10212;42.714;23.310;2022-07-23T11:55:05;95373.34;;;33.93;18.62
20105;BME280;10212;42.714;23.310;2022-07-23T12:00:18;95366.13;;;33.98;20.32
20105;BME280;10212;42.714;23.310;2022-07-23T12:05:24;95365.78;;;34.15;19.23
20105;BME280;10212;42.714;23.310;2022-07-23T12:10:41;95360.31;;;34.48;19.17
20105;BME280;10212;42.714;23.310;2022-07-23T12:15:44;95360.28;;;34.64;18.09
20105;BME280;10212;42.714;23.310;2022-07-23T12:20:52;95350.47;;;34.92;17.54
20105;BME280;10212;42.714;23.310;2022-07-23T12:26:00;95347.88;;;35.19;17.06
20105;BME280;10212;42.714;23.310;2022-07-23T12:31:02;95351.47;;;35.43;15.50
20105;BME280;10212;42.714;23.310;2022-07-23T12:36:07;95342.31;;;35.51;15.46
20105;BME280;10212;42.714;23.310;2022-07-23T12:41:08;95336.25;;;35.81;16.26
20105;BME280;10212;42.714;23.310;2022-07-23T12:46:14;95327.00;;;36.10;16.11
20105;BME280;10212;42.714;23.310;2022-07-23T12:51:18;95330.56;;;36.41;16.00
20105;BME280;10212;42.714;23.310;2022-07-23T12:56:27;95322.22;;;36.53;14.67
20105;BME280;10212;42.714;23.310;2022-07-23T13:01:30;95318.22;;;36.43;14.54
20105;BME280;10212;42.714;23.310;2022-07-23T13:06:45;95317.09;;;36.48;14.59
20105;BME280;10212;42.714;23.310;2022-07-23T13:11:47;95314.25;;;36.68;15.02
20105;BME280;10212;42.714;23.310;2022-07-23T13:16:49;95317.81;;;36.72;14.66
20105;BME280;10212;42.714;23.310;2022-07-23T13:21:50;95318.00;;;36.87;13.45
20105;BME280;10212;42.714;23.310;2022-07-23T13:26:50;95311.44;;;36.61;14.20
20105;BME280;10212;42.714;23.310;2022-07-23T13:31:52;95297.63;;;36.73;14.27
20105;BME280;10212;42.714;23.310;2022-07-23T13:36:57;95301.78;;;36.94;13.32
20105;BME280;10212;42.714;23.310;2022-07-23T13:42:00;95296.31;;;36.90;14.30
20105;BME280;10212;42.714;23.310;2022-07-23T13:47:01;95296.25;;;36.87;12.10
20105;BME280;10212;42.714;23.310;2022-07-23T13:52:05;95286.31;;;36.98;13.13
20105;BME280;10212;42.714;23.310;2022-07-23T13:57:05;95287.78;;;36.92;14.39
20105;BME280;10212;42.714;23.310;2022-07-23T14:02:07;95284.28;;;36.61;14.45
20105;BME280;10212;42.714;23.310;2022-07-23T14:07:08;95281.81;;;36.48;15.09
20105;BME280;10212;42.714;23.310;2022-07-23T14:12:11;95286.56;;;36.01;14.88
20105;BME280;10212;42.714;23.310;2022-07-23T14:17:12;95282.84;;;36.13;15.92
20105;BME280;10212;42.714;23.310;2022-07-23T14:22:13;95281.94;;;36.28;15.56
20105;BME280;10212;42.714;23.310;2022-07-23T14:27:16;95277.47;;;36.16;15.93
20105;BME280;10212;42.714;23.310;2022-07-23T14:32:17;95271.31;;;36.19;16.37
20105;BME280;10212;42.714;23.310;2022-07-23T14:37:18;95267.38;;;36.13;16.16
20105;BME280;10212;42.714;23.310;2022-07-23T14:42:18;95265.75;;;36.08;16.16
20105;BME280;10212;42.714;23.310;2022-07-23T14:47:20;95261.25;;;36.20;15.72
20105;BME280;10212;42.714;23.310;2022-07-23T14:52:20;95253.38;;;36.11;16.00
20105;BME280;10212;42.714;23.310;2022-07-23T14:57:21;95255.63;;;36.05;15.21
20105;BME280;10212;42.714;23.310;2022-07-23T15:02:22;95243.41;;;35.92;15.97
20105;BME280;10212;42.714;23.310;2022-07-23T15:07:22;95239.53;;;35.66;15.40
20105;BME280;10212;42.714;23.310;2022-07-23T15:12:25;95235.22;;;35.65;15.87
20105;BME280;10212;42.714;23.310;2022-07-23T15:17:25;95230.53;;;35.85;15.74
20105;BME280;10212;42.714;23.310;2022-07-23T15:22:26;95231.09;;;35.71;16.44
20105;BME280;10212;42.714;23.310;2022-07-23T15:27:28;95239.66;;;35.26;17.89
20105;BME280;10212;42.714;23.310;2022-07-23T15:32:28;95232.97;;;35.43;17.11
20105;BME280;10212;42.714;23.310;2022-07-23T15:37:29;95238.66;;;35.15;19.53
20105;BME280;10212;42.714;23.310;2022-07-23T15:42:29;95246.53;;;34.80;20.66
20105;BME280;10212;42.714;23.310;2022-07-23T15:47:30;95235.22;;;34.74;20.65
20105;BME280;10212;42.714;23.310;2022-07-23T15:52:30;95239.25;;;34.45;20.90
20105;BME280;10212;42.714;23.310;2022-07-23T15:57:31;95231.03;;;34.21;20.80
20105;BME280;10212;42.714;23.310;2022-07-23T16:02:31;95237.88;;;33.99;23.15
20105;BME280;10212;42.714;23.310;2022-07-23T16:07:31;95237.72;;;33.59;22.18
20105;BME280;10212;42.714;23.310;2022-07-23T16:12:34;95232.63;;;33.09;24.54
20105;BME280;10212;42.714;23.310;2022-07-23T16:17:35;95234.34;;;32.72;24.66
20105;BME280;10212;42.714;23.310;2022-07-23T16:22:35;95241.63;;;32.43;26.16
20105;BME280;10212;42.714;23.310;2022-07-23T16:27:39;95239.41;;;32.33;25.41
20105;BME280;10212;42.714;23.310;2022-07-23T16:32:40;95240.59;;;32.07;26.06
20105;BME280;10212;42.714;23.310;2022-07-23T16:37:41;95245.97;;;31.82;26.49
20105;BME280;10212;42.714;23.310;2022-07-23T16:42:42;95239.31;;;31.54;26.46
20105;BME280;10212;42.714;23.310;2022-07-23T16:47:43;95246.78;;;31.36;27.87
20105;BME280;10212;42.714;23.310;2022-07-23T16:52:43;95248.66;;;31.23;28.94
20105;BME280;10212;42.714;23.310;2022-07-23T16:57:44;95245.16;;;31.10;27.73
20105;BME280;10212;42.714;23.310;2022-07-23T17:02:45;95243.09;;;30.94;27.46
20105;BME280;10212;42.714;23.310;2022-07-23T17:07:45;95242.25;;;30.81;27.24
20105;BME280;10212;42.714;23.310;2022-07-23T17:12:46;95242.97;;;30.69;27.80
20105;BME280;10212;42.714;23.310;2022-07-23T17:17:50;95245.72;;;30.60;27.66
20105;BME280;10212;42.714;23.310;2022-07-23T17:22:50;95240.44;;;30.51;26.93
20105;BME280;10212;42.714;23.310;2022-07-23T17:27:51;95239.84;;;30.45;27.36
20105;BME280;10212;42.714;23.310;2022-07-23T17:32:51;95238.09;;;30.19;28.38
20105;BME280;10212;42.714;23.310;2022-07-23T17:37:52;95240.34;;;30.17;28.21
20105;BME280;10212;42.714;23.310;2022-07-23T17:42:52;95239.13;;;30.06;27.97
20105;BME280;10212;42.714;23.310;2022-07-23T17:47:53;95251.97;;;30.00;27.30
20105;BME280;10212;42.714;23.310;2022-07-23T17:52:55;95252.06;;;29.82;29.61
20105;BME280;10212;42.714;23.310;2022-07-23T17:57:56;95243.63;;;29.63;30.18
20105;BME280;10212;42.714;23.310;2022-07-23T18:02:58;95251.91;;;29.40;31.02
20105;BME280;10212;42.714;23.310;2022-07-23T18:07:59;95265.53;;;29.17;31.12
20105;BME280;10212;42.714;23.310;2022-07-23T18:13:04;95263.47;;;28.96;32.18
20105;BME280;10212;42.714;23.310;2022-07-23T18:18:05;95270.28;;;28.75;32.74
20105;BME280;10212;42.714;23.310;2022-07-23T18:23:06;95268.09;;;28.51;33.30
20105;BME280;10212;42.714;23.310;2022-07-23T18:28:07;95273.59;;;28.37;33.94
20105;BME280;10212;42.714;23.310;2022-07-23T18:33:07;95281.25;;;28.21;34.13
20105;BME280;10212;42.714;23.310;2022-07-23T18:38:08;95281.22;;;28.03;34.69
20105;BME280;10212;42.714;23.310;2022-07-23T18:43:09;95285.41;;;27.86;35.05
20105;BME280;10212;42.714;23.310;2022-07-23T18:48:09;95293.72;;;27.76;35.23
20105;BME280;10212;42.714;23.310;2022-07-23T18:53:10;95304.50;;;27.62;36.46
20105;BME280;10212;42.714;23.310;2022-07-23T18:58:11;95302.84;;;27.43;36.97
20105;BME280;10212;42.714;23.310;2022-07-23T19:03:11;95316.78;;;27.31;37.50
20105;BME280;10212;42.714;23.310;2022-07-23T19:08:12;95324.22;;;27.11;38.17
20105;BME280;10212;42.714;23.310;2022-07-23T19:13:13;95320.50;;;26.84;39.50
20105;BME280;10212;42.714;23.310;2022-07-23T19:18:13;95318.97;;;26.69;39.54
20105;BME280;10212;42.714;23.310;2022-07-23T19:23:14;95319.41;;;26.62;39.94
20105;BME280;10212;42.714;23.310;2022-07-23T19:28:14;95326.75;;;26.42;40.45
20105;BME280;10212;42.714;23.310;2022-07-23T19:33:15;95326.44;;;26.30;41.22
20105;BME280;10212;42.714;23.310;2022-07-23T19:38:16;95333.56;;;26.20;41.41
20105;BME280;10212;42.714;23.310;2022-07-23T19:43:16;95336.84;;;26.03;41.84
20105;BME280;10212;42.714;23.310;2022-07-23T19:48:17;95341.59;;;25.92;41.21
20105;BME280;10212;42.714;23.310;2022-07-23T19:53:18;95336.44;;;25.82;42.83
20105;BME280;10212;42.714;23.310;2022-07-23T19:58:19;95343.03;;;25.70;43.56
20105;BME280;10212;42.714;23.310;2022-07-23T20:03:19;95334.59;;;25.63;43.48
20105;BME280;10212;42.714;23.310;2022-07-23T20:08:20;95341.88;;;25.43;44.73
20105;BME280;10212;42.714;23.310;2022-07-23T20:13:21;95336.13;;;25.36;44.81
20105;BME280;10212;42.714;23.310;2022-07-23T20:18:21;95345.78;;;25.32;45.04
20105;BME280;10212;42.714;23.310;2022-07-23T20:23:22;95343.06;;;25.17;44.45
20105;BME280;10212;42.714;23.310;2022-07-23T20:28:23;95346.91;;;25.11;44.64
20105;BME280;10212;42.714;23.310;2022-07-23T20:33:23;95344.53;;;25.10;44.19
20105;BME280;10212;42.714;23.310;2022-07-23T20:38:24;95340.97;;;25.14;43.83
20105;BME280;10212;42.714;23.310;2022-07-23T20:43:25;95352.69;;;24.99;45.54
20105;BME280;10212;42.714;23.310;2022-07-23T20:48:26;95345.25;;;24.96;45.06
20105;BME280;10212;42.714;23.310;2022-07-23T20:53:26;95343.28;;;24.83;45.37
20105;BME280;10212;42.714;23.310;2022-07-23T20:58:27;95352.19;;;24.97;44.41
20105;BME280;10212;42.714;23.310;2022-07-23T21:03:27;95354.38;;;24.90;44.76
20105;BME280;10212;42.714;23.310;2022-07-23T21:08:28;95354.25;;;24.81;45.00
20105;BME280;10212;42.714;23.310;2022-07-23T21:13:28;95362.91;;;24.48;46.11
20105;BME280;10212;42.714;23.310;2022-07-23T21:18:29;95370.09;;;24.28;47.50
20105;BME280;10212;42.714;23.310;2022-07-23T21:23:30;95363.38;;;24.06;48.25
20105;BME280;10212;42.714;23.310;2022-07-23T21:28:31;95367.75;;;23.92;47.58
20105;BME280;10212;42.714;23.310;2022-07-23T21:33:32;95371.66;;;23.75;47.34
20105;BME280;10212;42.714;23.310;2022-07-23T21:38:33;95373.06;;;23.67;47.58
20105;BME280;10212;42.714;23.310;2022-07-23T21:43:33;95378.31;;;23.43;48.20
20105;BME280;10212;42.714;23.310;2022-07-23T21:48:34;95379.94;;;23.33;48.78
20105;BME280;10212;42.714;23.310;2022-07-23T21:53:34;95379.25;;;23.22;49.09
20105;BME280;10212;42.714;23.310;2022-07-23T21:58:35;95379.34;;;23.07;49.94
20105;BME280;10212;42.714;23.310;2022-07-23T22:03:35;95373.78;;;23.03;50.13
20105;BME280;10212;42.714;23.310;2022-07-23T22:08:36;95387.69;;;22.89;50.10
20105;BME280;10212;42.714;23.310;2022-07-23T22:13:36;95377.34;;;22.83;50.20
20105;BME280;10212;42.714;23.310;2022-07-23T22:18:37;95376.97;;;23.00;49.81
20105;BME280;10212;42.714;23.310;2022-07-23T22:23:37;95389.25;;;22.96;50.02
20105;BME280;10212;42.714;23.310;2022-07-23T22:28:38;95390.03;;;22.96;50.40
20105;BME280;10212;42.714;23.310;2022-07-23T22:33:38;95386.69;;;22.75;50.12
20105;BME280;10212;42.714;23.310;2022-07-23T22:38:39;95389.41;;;22.59;50.75
20105;BME280;10212;42.714;23.310;2022-07-23T22:43:40;95397.38;;;22.54;50.83
20105;BME280;10212;42.714;23.310;2022-07-23T22:48:40;95397.38;;;22.54;50.64
20105;BME280;10212;42.714;23.310;2022-07-23T22:53:41;95394.72;;;22.59;50.01
20105;BME280;10212;42.714;23.310;2022-07-23T22:58:42;95390.00;;;22.46;50.94
20105;BME280;10212;42.714;23.310;2022-07-23T23:03:42;95404.31;;;22.55;50.25
20105;BME280;10212;42.714;23.310;2022-07-23T23:08:43;95405.13;;;22.45;50.52
20105;BME280;10212;42.714;23.310;2022-07-23T23:13:44;95407.56;;;22.36;51.77
20105;BME280;10212;42.714;23.310;2022-07-23T23:18:44;95411.34;;;22.14;52.25
20105;BME280;10212;42.714;23.310;2022-07-23T23:23:45;95403.63;;;22.08;52.95
20105;BME280;10212;42.714;23.310;2022-07-23T23:28:48;95400.19;;;22.07;52.61
20105;BME280;10212;42.714;23.310;2022-07-23T23:33:49;95405.53;;;21.81;52.70
20105;BME280;10212;42.714;23.310;2022-07-23T23:38:50;95414.00;;;21.62;53.36
20105;BME280;10212;42.714;23.310;2022-07-23T23:43:51;95417.47;;;21.58;53.36
20105;BME280;10212;42.714;23.310;2022-07-23T23:48:52;95415.59;;;21.37;53.97
20105;BME280;10212;42.714;23.310;2022-07-23T23:53:52;95417.72;;;21.45;54.16
20105;BME280;10212;42.714;23.310;2022-07-23T23:58:53;95409.75;;;21.40;53.19
